Tiempo atmosférico en la estación meteorológica de Maspalomas, Las Palmas (25 m.)



Fecha
DESCASC
Temp. máxima en grados centígrados (hora)
DESCASC
Temp. mínima en grados centígrados (hora)
DESCASC
Temp. media en grados centígrados
DESCASC
Racha de viento máxima en m/sg (hora)
DESCASC
Velocidad máxima media en intervalos de 10 minutos(hora)
DESCASC
Precipitaciones diarias en mm
DESCASC
Precipitaciones de 00:00 a 06:00 en mm
DESCASC
Precipitaciones de 06:00 a 12:00 en mm
DESCASC
Precipitaciones de 12:00 a 18:00 en mm
DESCASC
Precipitaciones de 18:00 a 24:00 en mm
DESCASC
24-01-2021 -- (--) -- (--) -- 8.89 (13:50) 7.5 (14:20) 0 0 0 0 0
23-01-2021 -- (--) -- (--) -- 10.83 (13:40) 6.39 (13:10) 0 0 0 0 0
22-01-2021 -- (--) -- (--) -- 5.83 (23:20) 3.89 (23:30) 0 0 0 0 0
21-01-2021 -- (--) -- (--) -- 10.28 (15:10) 8.33 (15:00) 0 0 0 0 0
20-01-2021 -- (--) -- (--) -- 5 (23:59) 3.89 (11:40) 0 0 0 0 0
19-01-2021 -- (--) -- (--) -- 6.94 (13:10) 6.11 (11:30) -- 0 -- 0 0
18-01-2021 -- (--) -- (--) -- 9.72 (12:30) 7.5 (12:20) 0 0 0 0 0
17-01-2021 -- (--) -- (--) -- 13.06 (12:40) 10.28 (13:30) 0 0 0 0 0
16-01-2021 -- (--) -- (--) -- 15 (14:00) 11.11 (13:10) 0 0 0 0 0
15-01-2021 -- (--) -- (--) -- 15 (15:40) 10.28 (15:10) 0 0 0 0 0
14-01-2021 -- (--) -- (--) -- 14.17 (13:10) 6.39 (13:50) 0 0 0 0 0
13-01-2021 -- (--) -- (--) -- 14.17 (15:30) 10.28 (13:30) 2.9 0 2.9 0 0
12-01-2021 -- (--) -- (--) -- 13.06 (13:30) 7.78 (11:40) 0 0 0 0 0
11-01-2021 -- (--) -- (--) -- 9.17 (19:50) 6.11 (19:50) 0 0 0 0 0
10-01-2021 -- (--) -- (--) -- 7.22 (15:30) 5.83 (13:50) 0 0 0 0 0
09-01-2021 -- (--) -- (--) -- 9.72 (15:00) 6.67 (14:50) 0 0 0 0 0
08-01-2021 -- (--) -- (--) -- 15.28 (05:30) 10 (00:30) 1.2 1.2 0 0 0
07-01-2021 -- (--) -- (--) -- 17.5 (12:50) 13.61 (12:40) 6.2 0.1 0.2 0 5.9
06-01-2021 -- (--) -- (--) -- 14.72 (13:40) 10.56 (10:00) 0.4 0 0 0.2 0.2
05-01-2021 -- (--) -- (--) -- 10 (23:10) 6.39 (23:10) 0.9 0.2 0.1 0 0.6
04-01-2021 -- (--) -- (--) -- 8.89 (22:40) 7.22 (22:50) 0.1 0 0 0 0.1
03-01-2021 -- (--) -- (--) -- 7.5 (15:30) 5.56 (15:20) 0 0 0 0 0
02-01-2021 -- (--) -- (--) -- 10.83 (14:30) 8.33 (14:20) 0 0 0 0 0
01-01-2021 -- (--) -- (--) -- 12.5 (13:00) 8.61 (17:40) 0 0 0 0 0
31-12-2020 -- (--) -- (--) -- 11.39 (14:00) 9.17 (14:00) 0 0 0 0 0
30-12-2020 -- (--) -- (--) -- 7.78 (17:10) 5.56 (17:20) 0 0 0 0 0
29-12-2020 -- (--) -- (--) -- 11.39 (14:30) 8.89 (13:20) 0 0 0 0 0
28-12-2020 -- (--) -- (--) -- 5 (17:00) 3.89 (17:00) 0 0 0 0 0
27-12-2020 -- (--) -- (--) -- 5.56 (21:30) 4.72 (12:40) 0 0 0 0 0
26-12-2020 -- (--) -- (--) -- 4.17 (15:50) 3.33 (14:00) 0 0 0 0 0

Gráficas

Temp. máximas Temp. mínimas Temp. medias Precipitaciones Rachas de viento máximas Velocidades máximas media en intervalos de 10 minutos

Datos horarios

Fecha y hora oficial Temperatura (ºC) Velocidad del viento (km/h) Dirección del viento Racha (km/h) Dirección de racha Precipitación (mm) Presión (hPa) Tendencia (hPa) Humedad (%)
2021-01-24 23:00:00 16.9 2 Norte 7 Nordeste 0 -- -- 93
2021-01-24 22:00:00 17.7 3 Nordeste 15 Nordeste 0 -- -- 92
2021-01-24 21:00:00 18.1 7 Nordeste 23 Nordeste 0 -- -- 91
2021-01-24 20:00:00 18.5 15 Nordeste 27 Este 0 -- -- 90
2021-01-24 19:00:00 18.9 20 Nordeste 26 Nordeste 0 -- -- 87
2021-01-24 18:00:00 20.8 0 Calma 21 Nordeste 0 -- -- 79
2021-01-24 17:00:00 20.2 18 Nordeste 29 Este 0 -- -- 83
2021-01-24 16:00:00 19.9 23 Este 28 Este 0 -- -- 84
2021-01-24 15:00:00 22.3 5 Sudeste 32 Este 0 -- -- 72
2021-01-24 14:00:00 21.7 26 Este 32 Este 0 -- -- 75
2021-01-24 13:00:00 21.6 21 Este 29 Este 0 -- -- 72
2021-01-24 12:00:00 21.2 6 Sudoeste 10 Oeste 0 -- -- 76
2021-01-24 11:00:00 20.2 8 Sudoeste 11 Sudoeste 0 -- -- 78
2021-01-24 10:00:00 19.4 6 Sudoeste 9 Sudoeste 0 -- -- 80
2021-01-24 09:00:00 15.4 3 Norte 8 Nordeste 0 -- -- 91
2021-01-24 08:00:00 14.3 4 Nordeste 8 Nordeste 0 -- -- 94
2021-01-24 07:00:00 15 3 Noroeste 8 Norte 0 -- -- 94
2021-01-24 06:00:00 15.2 4 Norte 7 Norte 0 -- -- 94
2021-01-24 05:00:00 15.6 2 Noroeste 7 Norte 0 -- -- 94
2021-01-24 04:00:00 15.9 5 Norte 8 Nordeste 0 -- -- 92
2021-01-24 03:00:00 16.4 0 Calma 12 Nordeste 0 -- -- 88
2021-01-24 02:00:00 17 4 Nordeste 10 Nordeste 0 -- -- 85
2021-01-24 01:00:00 17.2 3 Norte 19 Nordeste 0 -- -- 83
2021-01-24 00:00:00 17.9 11 Nordeste 17 Este 0 -- -- 83
2021-01-23 23:00:00 17.3 5 Nordeste 19 Nordeste 0 -- -- 82
2021-01-23 22:00:00 17.7 14 Nordeste 22 Nordeste 0 -- -- 83
2021-01-23 21:00:00 18.2 14 Nordeste 21 Nordeste 0 -- -- 83
2021-01-23 20:00:00 18.6 4 Este 13 Nordeste 0 -- -- 81
2021-01-23 19:00:00 19.6 3 Sur 15 Oeste 0 -- -- 83
2021-01-23 18:00:00 20.2 9 Oeste 17 Oeste 0 -- -- 80
2021-01-23 17:00:00 20.5 9 Oeste 16 Oeste 0 -- -- 79
2021-01-23 16:00:00 21.2 10 Oeste 21 Oeste 0 -- -- 76
2021-01-23 15:00:00 21.6 8 Oeste 28 Sudeste 0 -- -- 69
2021-01-23 14:00:00 23.2 13 Este 39 Nordeste 0 -- -- 63
2021-01-23 13:00:00 22.7 22 Este 33 Este 0 -- -- 65
2021-01-23 12:00:00 22.5 5 Sur 37 Nordeste 0 -- -- 70
2021-01-23 11:00:00 20.8 20 Nordeste 31 Nordeste 0 -- -- 79
2021-01-23 10:00:00 19.5 4 Nordeste 7 Nordeste 0 -- -- 81
2021-01-23 09:00:00 17 3 Norte 15 Este 0 -- -- 88
2021-01-23 08:00:00 16.1 3 Norte 9 Nordeste 0 -- -- 91
2021-01-23 07:00:00 15.9 3 Norte 9 Nordeste 0 -- -- 92
2021-01-23 06:00:00 15.7 4 Norte 7 Nordeste 0 -- -- 92
2021-01-23 05:00:00 16.3 2 Norte 8 Norte 0 -- -- 92
2021-01-23 04:00:00 16.8 3 Nordeste 12 Este 0 -- -- 91
2021-01-23 03:00:00 17.8 4 Nordeste 10 Nordeste 0 -- -- 89
2021-01-23 02:00:00 18.4 8 Nordeste 16 Nordeste 0 -- -- 87
2021-01-23 01:00:00 18.4 10 Nordeste 23 Nordeste 0 -- -- 89
2021-01-23 00:00:00 18.7 7 Nordeste 21 Nordeste 0 -- -- 84
2021-01-22 23:00:00 18.6 11 Nordeste 18 Nordeste 0 -- -- 85
2021-01-22 22:00:00 18.5 4 Nordeste 13 Nordeste 0 -- -- 87
2021-01-22 21:00:00 18.7 3 Nordeste 9 Sudoeste 0 -- -- 87
2021-01-22 20:00:00 19.5 3 Oeste 8 Sudoeste 0 -- -- 85
2021-01-22 19:00:00 20 4 Oeste 10 Oeste 0 -- -- 82
2021-01-22 18:00:00 20.8 8 Sudoeste 10 Oeste 0 -- -- 79
2021-01-22 17:00:00 21.8 9 Sudoeste 15 Sudoeste 0 -- -- 76
2021-01-22 16:00:00 21.6 13 Sudoeste 18 Sudoeste 0 -- -- 78
2021-01-22 15:00:00 21.5 9 Oeste 17 Sudoeste 0 -- -- 76
2021-01-22 14:00:00 21.7 13 Sudoeste 15 Sudoeste 0 -- -- 75
2021-01-22 13:00:00 22.1 10 Sudoeste 14 Sudoeste 0 -- -- 71
2021-01-22 12:00:00 21.5 7 Sur 13 Este 0 -- -- 73
2021-01-22 11:00:00 21.1 12 Este 15 Este 0 -- -- 77
2021-01-22 10:00:00 21.1 10 Este 14 Este 0 -- -- 75
2021-01-22 09:00:00 18.9 4 Nordeste 8 Nordeste 0 -- -- 82
2021-01-22 08:00:00 17.3 3 Norte 8 Nordeste 0 -- -- 87
2021-01-22 07:00:00 16.9 3 Norte 9 Norte 0 -- -- 87
2021-01-22 06:00:00 16.9 0 Calma 6 Norte 0 -- -- 86
2021-01-22 05:00:00 17.3 3 Norte 8 Nordeste 0 -- -- 88
2021-01-22 04:00:00 17.6 0 Calma 6 Oeste 0 -- -- 85
2021-01-22 03:00:00 18 0 Calma 6 Noroeste 0 -- -- 85
2021-01-22 02:00:00 18 3 Norte 8 Norte 0 -- -- 85
2021-01-22 01:00:00 17.9 0 Calma 5 Noroeste 0 -- -- 88
2021-01-22 00:00:00 17.4 2 Norte 6 Nordeste 0 -- -- 91
2021-01-21 23:00:00 17.7 0 Calma 12 Noroeste 0 -- -- 92
2021-01-21 22:00:00 17.1 0 Calma 8 Noroeste 0 -- -- 90
2021-01-21 21:00:00 18.4 0 Calma 10 Noroeste 0 -- -- 87
2021-01-21 20:00:00 19 2 Noroeste 14 Oeste 0 -- -- 86
2021-01-21 19:00:00 19.8 8 Oeste 19 Oeste 0 -- -- 87
2021-01-21 18:00:00 20.3 11 Oeste 30 Este 0 -- -- 81
2021-01-21 17:00:00 20.9 24 Nordeste 37 Este 0 -- -- 80
2021-01-21 16:00:00 20.9 30 Este 37 Este 0 -- -- 78
2021-01-21 15:00:00 21 30 Este 37 Este 0 -- -- 78
2021-01-21 14:00:00 21.1 10 Este 22 Este 0 -- -- 77
2021-01-21 13:00:00 21.4 5 Sudoeste 15 Oeste 0 -- -- 67
2021-01-21 12:00:00 21.6 8 Oeste 16 Oeste 0 -- -- 68
2021-01-21 11:00:00 21.7 6 Nordeste 20 Este 0 -- -- 69
2021-01-21 10:00:00 20.6 4 Norte 10 Norte 0 -- -- 73
2021-01-21 09:00:00 14.5 3 Norte 14 Nordeste 0 -- -- 81
2021-01-21 08:00:00 14.2 2 Norte 10 Noroeste 0 -- -- 81
2021-01-21 07:00:00 14.9 4 Norte 12 Nordeste 0 -- -- 83
2021-01-21 06:00:00 13.9 2 Norte 10 Noroeste 0 -- -- 85
2021-01-21 05:00:00 14 4 Noroeste 8 Noroeste 0 -- -- 86
2021-01-21 04:00:00 14.2 3 Norte 7 Norte 0 -- -- 86
2021-01-21 03:00:00 14.6 0 Calma 8 Norte 0 -- -- 87
2021-01-21 02:00:00 15.1 0 Calma 12 Oeste 0 -- -- 86
2021-01-21 01:00:00 16.4 6 Noroeste 15 Oeste 0 -- -- 82
2021-01-21 00:00:00 16.9 12 Nordeste 18 Este 0 -- -- 80
2021-01-20 23:00:00 16.3 0 Calma 6 Nordeste 0 -- -- 81
2021-01-20 22:00:00 17.1 0 Calma 6 Nordeste 0 -- -- 78
2021-01-20 21:00:00 17.9 0 Calma 3 Sudoeste 0 -- -- 76
2021-01-20 20:00:00 18.1 0 Calma 4 Nordeste 0 -- -- 76
2021-01-20 19:00:00 17.8 2 Este 6 Sur 0 -- -- 74
2021-01-20 18:00:00 19.3 3 Sur 11 Sudoeste 0 -- -- 70
2021-01-20 17:00:00 19.8 8 Sudoeste 11 Sudoeste 0 -- -- 69
2021-01-20 16:00:00 20.3 5 Sur 11 Sur 0 -- -- 69
2021-01-20 15:00:00 20.4 6 Sur 12 Sur 0 -- -- 67
2021-01-20 14:00:00 20 7 Sudeste 15 Este 0 -- -- 69
2021-01-20 13:00:00 19.4 12 Sudeste 16 Sudeste 0 -- -- 71
2021-01-20 12:00:00 19.8 13 Este 17 Este 0 -- -- 69
2021-01-20 11:00:00 19.3 9 Este 12 Este 0 -- -- 66
2021-01-20 10:00:00 19.8 3 Nordeste 6 Nordeste 0 -- -- 62
2021-01-20 09:00:00 14.7 4 Norte 6 Norte 0 -- -- 62
2021-01-20 08:00:00 11.7 3 Norte 5 Norte 0 -- -- 68
2021-01-20 07:00:00 12.3 4 Norte 6 Norte 0 -- -- 67
2021-01-20 06:00:00 12.5 4 Norte 6 Norte 0 -- -- 69
2021-01-20 05:00:00 12 2 Norte 5 Noroeste 0 -- -- 86
2021-01-20 04:00:00 12.7 2 Norte 6 Noroeste 0 -- -- 91
2021-01-20 03:00:00 13.2 2 Norte 7 Noroeste 0 -- -- 90
2021-01-20 02:00:00 13.5 0 Calma 7 Noroeste 0 -- -- 89
2021-01-20 01:00:00 13.9 0 Calma 5 Oeste 0 -- -- 88
2021-01-20 00:00:00 14.4 2 Norte 4 Noroeste 0 -- -- 87
2021-01-19 23:00:00 15.6 2 Norte 6 Norte 0 -- -- 83
2021-01-19 22:00:00 16.5 4 Norte 8 Norte 0 -- -- 82
2021-01-19 21:00:00 16.4 3 Nordeste 10 Este 0 -- -- 82
2021-01-19 20:00:00 17.3 9 Este 16 Este 0 -- -- 79
2021-01-19 19:00:00 18.1 15 Este 18 Este 0 -- -- 78
2021-01-19 18:00:00 18.7 11 Nordeste 18 Este 0 -- -- 74
2021-01-19 17:00:00 19.3 13 Este 21 Este 0 -- -- 72
2021-01-19 16:00:00 19.3 16 Este 22 Este 0 -- -- 72
2021-01-19 15:00:00 18.8 15 Este 22 Este 0 -- -- 72
2021-01-19 14:00:00 19.6 17 Este 25 Este 0 -- -- 68
2021-01-19 13:00:00 19.8 21 Este 24 Este 0 -- -- 70
2021-01-19 12:00:00 18.9 19 Este 24 Este 0 -- -- 69
2021-01-19 11:00:00 19 0 Calma -- -- -- -- -- 68
2021-01-19 10:00:00 18.8 9 Nordeste 19 Nordeste 0 -- -- 61
2021-01-19 09:00:00 14.4 5 Norte 11 Norte 0 -- -- 52
2021-01-19 08:00:00 11.4 4 Norte 14 Norte 0 -- -- 61
2021-01-19 07:00:00 11.4 4 Norte 10 Norte 0 -- -- 62
2021-01-19 06:00:00 11.7 6 Norte 13 Nordeste 0 -- -- 63
2021-01-19 05:00:00 11.5 4 Norte 8 Nordeste 0 -- -- 68
2021-01-19 04:00:00 11.8 4 Norte 6 Norte 0 -- -- 74
2021-01-19 03:00:00 12.4 4 Norte 5 Norte 0 -- -- 78
2021-01-19 02:00:00 12.5 3 Norte 6 Norte 0 -- -- 80
2021-01-19 01:00:00 13.6 4 Norte 5 Norte 0 -- -- 78
2021-01-19 00:00:00 13.8 4 Norte 6 Norte 0 -- -- 81
2021-01-18 23:00:00 14.4 4 Norte 11 Nordeste 0 -- -- 82
2021-01-18 22:00:00 15.8 5 Nordeste 15 Nordeste 0 -- -- 82
2021-01-18 21:00:00 16.7 10 Nordeste 17 Este 0 -- -- 81
2021-01-18 20:00:00 17.3 9 Nordeste 22 Este 0 -- -- 78
2021-01-18 19:00:00 17.5 15 Este 23 Este 0 -- -- 76
2021-01-18 18:00:00 18.3 18 Este 26 Este 0 -- -- 72
2021-01-18 17:00:00 18.9 21 Este 28 Este 0 -- -- 67
2021-01-18 16:00:00 19.7 24 Este 30 Este 0 -- -- 67
2021-01-18 15:00:00 19.6 26 Este 31 Este 0 -- -- 66
2021-01-18 14:00:00 20 27 Este 33 Este 0 -- -- 68
2021-01-18 13:00:00 20.5 26 Este 35 Este 0 -- -- 62
2021-01-18 12:00:00 20.7 25 Este 32 Este 0 -- -- 65
2021-01-18 11:00:00 20.4 10 Nordeste 27 Nordeste 0 -- -- 54
2021-01-18 10:00:00 18.2 19 Nordeste 29 Nordeste 0 -- -- 66
2021-01-18 09:00:00 14.4 4 Norte 11 Norte 0 -- -- 51
2021-01-18 08:00:00 11 4 Norte 8 Nordeste 0 -- -- 54
2021-01-18 07:00:00 11.1 4 Norte 7 Noroeste 0 -- -- 55
2021-01-18 06:00:00 11.1 4 Noroeste 6 Norte 0 -- -- 55
2021-01-18 05:00:00 11.7 4 Noroeste 8 Norte 0 -- -- 52
2021-01-18 04:00:00 12.3 4 Noroeste 6 Norte 0 -- -- 55
2021-01-18 03:00:00 12.3 4 Noroeste 7 Noroeste 0 -- -- 58
2021-01-18 02:00:00 11.6 3 Norte 6 Norte 0 -- -- 76
2021-01-18 01:00:00 12.8 3 Norte 7 Noroeste 0 -- -- 85
2021-01-18 00:00:00 13.6 3 Noroeste 6 Noroeste 0 -- -- 84
2021-01-17 23:00:00 14.2 2 Norte 9 Norte 0 -- -- 83
2021-01-17 22:00:00 15.1 5 Norte 8 Norte 0 -- -- 78
2021-01-17 21:00:00 16 5 Norte 15 Nordeste 0 -- -- 75
2021-01-17 20:00:00 16.8 9 Nordeste 17 Este 0 -- -- 72
2021-01-17 19:00:00 17.5 0 Calma 31 Nordeste 0 -- -- 69
2021-01-17 18:00:00 18.3 23 Nordeste 33 Este 0 -- -- 67
2021-01-17 17:00:00 18.6 27 Este 35 Este 0 -- -- 68
2021-01-17 16:00:00 18.5 28 Este 36 Este 0 -- -- 68
2021-01-17 15:00:00 18.7 30 Este 41 Este 0 -- -- 66
2021-01-17 14:00:00 19 34 Este 44 Este 0 -- -- 66
2021-01-17 13:00:00 19.1 36 Este 47 Este 0 -- -- 66
2021-01-17 12:00:00 19.3 35 Este 43 Este 0 -- -- 67
2021-01-17 11:00:00 19.8 30 Nordeste 41 Este 0 -- -- 59
2021-01-17 10:00:00 19.7 5 Nordeste 10 Nordeste 0 -- -- 61
2021-01-17 09:00:00 15.2 2 Norte 8 Noroeste 0 -- -- 70
2021-01-17 08:00:00 12.7 3 Noroeste 12 Noroeste 0 -- -- 74
2021-01-17 07:00:00 12.9 2 Norte 12 Nordeste 0 -- -- 74
2021-01-17 06:00:00 13.2 3 Noroeste 12 Nordeste 0 -- -- 73
2021-01-17 05:00:00 14.7 5 Norte 27 Nordeste 0 -- -- 68
2021-01-17 04:00:00 16.4 15 Nordeste 32 Nordeste 0 -- -- 65
2021-01-17 03:00:00 16.4 17 Nordeste 29 Nordeste 0 -- -- 66
2021-01-17 02:00:00 16.6 12 Nordeste 29 Nordeste 0 -- -- 64
2021-01-17 01:00:00 16.9 15 Nordeste 27 Nordeste 0 -- -- 63
2021-01-17 00:00:00 16.8 14 Nordeste 34 Nordeste 0 -- -- 64
2021-01-16 23:00:00 17.1 16 Nordeste 28 Nordeste 0 -- -- 66
2021-01-16 22:00:00 17.4 16 Nordeste 30 Nordeste 0 -- -- 65
2021-01-16 21:00:00 17.4 14 Nordeste 32 Nordeste 0 -- -- 69
2021-01-16 20:00:00 17.7 17 Nordeste 33 Nordeste 0 -- -- 73
2021-01-16 19:00:00 18 21 Nordeste 36 Nordeste 0 -- -- 70
2021-01-16 18:00:00 20 6 Este 30 Este 0 -- -- 58
2021-01-16 17:00:00 20.3 0 Calma 42 Nordeste 0 -- -- 57
2021-01-16 16:00:00 19.7 28 Nordeste 53 Nordeste 0 -- -- 62
2021-01-16 15:00:00 20.4 37 Nordeste 51 Este 0 -- -- 61
2021-01-16 14:00:00 20.2 40 Nordeste 54 Nordeste 0 -- -- 57
2021-01-16 13:00:00 20.5 36 Nordeste 46 Este 0 -- -- 59
2021-01-16 12:00:00 21.4 5 Noroeste 40 Nordeste 0 -- -- 54
2021-01-16 11:00:00 20.2 23 Nordeste 48 Este 0 -- -- 53
2021-01-16 10:00:00 19.2 5 Norte 27 Este 0 -- -- 57
2021-01-16 09:00:00 15.8 4 Norte 14 Norte 0 -- -- 64
2021-01-16 08:00:00 13.1 4 Norte 17 Nordeste 0 -- -- 69
2021-01-16 07:00:00 15.7 8 Nordeste 37 Este 0 -- -- 64
2021-01-16 06:00:00 15.5 10 Nordeste 36 Nordeste 0 -- -- 64
2021-01-16 05:00:00 16.2 22 Nordeste 32 Nordeste 0 -- -- 61
2021-01-16 04:00:00 15.5 12 Nordeste 37 Nordeste 0 -- -- 64
2021-01-16 03:00:00 15 4 Norte 41 Nordeste 0 -- -- 64
2021-01-16 02:00:00 16.3 12 Nordeste 29 Nordeste 0 -- -- 60
2021-01-16 01:00:00 16.5 9 Nordeste 38 Nordeste 0 -- -- 58
2021-01-16 00:00:00 16.7 25 Nordeste 45 Nordeste 0 -- -- 60
2021-01-15 23:00:00 17.1 27 Nordeste 48 Nordeste 0 -- -- 60
2021-01-15 22:00:00 17.5 19 Nordeste 47 Nordeste 0 -- -- 58
2021-01-15 21:00:00 16.9 20 Nordeste 39 Nordeste 0 -- -- 59
2021-01-15 20:00:00 17 19 Nordeste 40 Nordeste 0 -- -- 59
2021-01-15 19:00:00 17.7 22 Nordeste 39 Nordeste 0 -- -- 62
2021-01-15 18:00:00 18.6 24 Nordeste 47 Nordeste 0 -- -- 59
2021-01-15 17:00:00 19.1 25 Nordeste 43 Nordeste 0 -- -- 55
2021-01-15 16:00:00 19.7 29 Nordeste 54 Nordeste 0 -- -- 56
2021-01-15 15:00:00 19.3 32 Nordeste 48 Nordeste 0 -- -- 58
2021-01-15 14:00:00 19.6 34 Nordeste 51 Nordeste 0 -- -- 54
2021-01-15 13:00:00 18.1 27 Nordeste 50 Nordeste 0 -- -- 61
2021-01-15 12:00:00 19.6 21 Nordeste 43 Nordeste 0 -- -- 53
2021-01-15 11:00:00 17.9 20 Nordeste 37 Nordeste 0 -- -- 58
2021-01-15 10:00:00 17.9 24 Nordeste 40 Nordeste 0 -- -- 58
2021-01-15 09:00:00 16.8 11 Nordeste 36 Nordeste 0 -- -- 57
2021-01-15 08:00:00 15.3 9 Nordeste 39 Nordeste 0 -- -- 63
2021-01-15 07:00:00 17 21 Nordeste 31 Nordeste 0 -- -- 62
2021-01-15 06:00:00 16.8 15 Nordeste 40 Nordeste 0 -- -- 57
2021-01-15 05:00:00 16.4 21 Nordeste 40 Nordeste 0 -- -- 62
2021-01-15 04:00:00 17 18 Nordeste 37 Nordeste 0 -- -- 55
2021-01-15 03:00:00 16.7 22 Nordeste 39 Nordeste 0 -- -- 62
2021-01-15 02:00:00 17 16 Nordeste 39 Nordeste 0 -- -- 62
2021-01-15 01:00:00 17.2 21 Nordeste 41 Nordeste 0 -- -- 63
2021-01-15 00:00:00 17.1 22 Nordeste 37 Este 0 -- -- 59
2021-01-14 23:00:00 17.1 18 Nordeste 39 Nordeste 0 -- -- 54
2021-01-14 22:00:00 16.8 17 Nordeste 35 Nordeste 0 -- -- 58
2021-01-14 21:00:00 17.2 17 Nordeste 34 Nordeste 0 -- -- 62
2021-01-14 20:00:00 17.4 17 Nordeste 31 Nordeste 0 -- -- 63
2021-01-14 19:00:00 17.5 15 Nordeste 27 Nordeste 0 -- -- 62
2021-01-14 18:00:00 17.6 21 Nordeste 31 Nordeste 0 -- -- 62
2021-01-14 17:00:00 17.7 17 Nordeste 31 Nordeste 0 -- -- 62
2021-01-14 16:00:00 17.7 17 Nordeste 27 Nordeste 0 -- -- 63
2021-01-14 15:00:00 17.9 16 Nordeste 29 Nordeste 0 -- -- 62
2021-01-14 14:00:00 17.6 22 Nordeste 51 Nordeste 0 -- -- 65
2021-01-14 13:00:00 17.6 18 Nordeste 27 Nordeste 0 -- -- 65
2021-01-14 12:00:00 17.7 21 Nordeste 29 Este 0 -- -- 65
2021-01-14 11:00:00 17.9 19 Nordeste 30 Nordeste 0 -- -- 61
2021-01-14 10:00:00 18.3 22 Nordeste 32 Este 0 -- -- 63
2021-01-14 09:00:00 17.7 13 Nordeste 21 Nordeste 0 -- -- 65
2021-01-14 08:00:00 15.9 8 Nordeste 21 Nordeste 0 -- -- 68
2021-01-14 07:00:00 15.8 12 Nordeste 39 Nordeste 0 -- -- 68
2021-01-14 06:00:00 15.8 11 Nordeste 19 Nordeste 0 -- -- 70
2021-01-14 05:00:00 15 8 Nordeste 15 Nordeste 0 -- -- 71
2021-01-14 04:00:00 15.7 8 Nordeste 24 Nordeste 0 -- -- 71
2021-01-14 03:00:00 16.1 10 Nordeste 24 Nordeste 0 -- -- 70
2021-01-14 02:00:00 15.1 9 Nordeste 16 Nordeste 0 -- -- 62
2021-01-14 01:00:00 14.9 6 Nordeste 11 Nordeste 0 -- -- 60
2021-01-14 00:00:00 16 6 Nordeste 14 Nordeste 0 -- -- 61
2021-01-13 23:00:00 15.9 7 Nordeste 25 Nordeste 0 -- -- 65
2021-01-13 22:00:00 16.9 13 Nordeste 24 Nordeste 0 -- -- 65
2021-01-13 21:00:00 16.9 11 Nordeste 20 Nordeste 0 -- -- 58
2021-01-13 20:00:00 17 12 Nordeste 33 Nordeste 0 -- -- 56
2021-01-13 19:00:00 17.3 23 Nordeste 30 Nordeste 0 -- -- 58
2021-01-13 18:00:00 18.1 19 Nordeste 35 Nordeste 0 -- -- 53
2021-01-13 17:00:00 18.9 25 Nordeste 48 Nordeste 0 -- -- 53
2021-01-13 16:00:00 19.4 31 Nordeste 51 Nordeste 0 -- -- 53
2021-01-13 15:00:00 19.7 30 Nordeste 50 Nordeste 0 -- -- 53
2021-01-13 14:00:00 19.2 33 Nordeste 50 Nordeste 0 -- -- 59
2021-01-13 13:00:00 19 27 Nordeste 44 Nordeste 0 -- -- 64
2021-01-13 12:00:00 18.5 24 Nordeste 44 Nordeste 0 -- -- 67
2021-01-13 11:00:00 17 17 Nordeste 36 Nordeste 0.1 -- -- 74
2021-01-13 10:00:00 15.9 9 Nordeste 30 Nordeste 0.4 -- -- 83
2021-01-13 09:00:00 15.3 15 Nordeste 30 Nordeste 2.1 -- -- 86
2021-01-13 08:00:00 16 10 Nordeste 38 Nordeste 0.3 -- -- 78
2021-01-13 07:00:00 17 16 Nordeste 31 Nordeste 0 -- -- 71
2021-01-13 06:00:00 16.4 11 Nordeste 28 Nordeste 0 -- -- 72
2021-01-13 05:00:00 16.4 15 Nordeste 26 Nordeste 0 -- -- 71
2021-01-13 04:00:00 16.2 9 Nordeste 24 Nordeste 0 -- -- 73
2021-01-13 03:00:00 16 6 Nordeste 27 Nordeste 0 -- -- 72
2021-01-13 02:00:00 16.5 5 Nordeste 20 Nordeste 0 -- -- 69
2021-01-13 01:00:00 15.1 3 Norte 11 Norte 0 -- -- 72
2021-01-13 00:00:00 16.5 5 Nordeste 24 Nordeste 0 -- -- 67
2021-01-12 23:00:00 17.1 15 Nordeste 26 Nordeste 0 -- -- 67
2021-01-12 22:00:00 16.9 15 Nordeste 26 Nordeste 0 -- -- 67
2021-01-12 21:00:00 16.2 8 Nordeste 11 Nordeste 0 -- -- 68
2021-01-12 20:00:00 17.2 2 Nordeste 21 Nordeste 0 -- -- 65
2021-01-12 19:00:00 17.5 4 Norte 18 Nordeste 0 -- -- 60
2021-01-12 18:00:00 19.2 2 Nordeste 32 Nordeste 0 -- -- 59
2021-01-12 17:00:00 18.5 23 Este 32 Este 0 -- -- 55
2021-01-12 16:00:00 17.1 16 Este 24 Sudeste 0 -- -- 72
2021-01-12 15:00:00 16.6 10 Este 34 Nordeste 0 -- -- 75
2021-01-12 14:00:00 16.2 23 Nordeste 47 Nordeste 0 -- -- 79
2021-01-12 13:00:00 18.9 23 Este 33 Este 0 -- -- 61
2021-01-12 12:00:00 18 24 Este 37 Este 0 -- -- 71
2021-01-12 11:00:00 19.1 18 Nordeste 33 Nordeste 0 -- -- 52
2021-01-12 10:00:00 17.5 8 Nordeste 33 Nordeste 0 -- -- 60
2021-01-12 09:00:00 15.2 18 Nordeste 35 Nordeste 0 -- -- 73
2021-01-12 08:00:00 15.3 10 Nordeste 27 Este 0 -- -- 72
2021-01-12 07:00:00 15.6 15 Nordeste 28 Nordeste 0 -- -- 70
2021-01-12 06:00:00 14.5 0 Calma 9 Nordeste 0 -- -- 66
2021-01-12 05:00:00 14.2 3 Noroeste 9 Nordeste 0 -- -- 67
2021-01-12 04:00:00 14.2 3 Norte 9 Noroeste 0 -- -- 70
2021-01-12 03:00:00 15.4 4 Norte 7 Nordeste 0 -- -- 68
2021-01-12 02:00:00 16.4 2 Nordeste 7 Sudoeste 0 -- -- 64
2021-01-12 01:00:00 16.2 2 Norte 12 Nordeste 0 -- -- 66
2021-01-12 00:00:00 16.8 9 Nordeste 26 Nordeste 0 -- -- 66
2021-01-11 23:00:00 16.3 10 Nordeste 32 Nordeste 0 -- -- 71
2021-01-11 22:00:00 16.3 13 Nordeste 28 Nordeste 0 -- -- 68
2021-01-11 21:00:00 16.9 0 Calma 24 Este 0 -- -- 64
2021-01-11 20:00:00 16.9 17 Este 33 Nordeste 0 -- -- 65
2021-01-11 19:00:00 16.6 19 Nordeste 28 Nordeste 0 -- -- 67
2021-01-11 18:00:00 19 3 Este 11 Nordeste 0 -- -- 58
2021-01-11 17:00:00 18.8 3 Nordeste 23 Sudeste 0 -- -- 55
2021-01-11 16:00:00 18.9 12 Sudoeste 21 Sudoeste 0 -- -- 57
2021-01-11 15:00:00 19.4 17 Sur 23 Sudeste 0 -- -- 55
2021-01-11 14:00:00 19.2 15 Sur 22 Oeste 0 -- -- 54
2021-01-11 13:00:00 19.5 13 Sudoeste 22 Sudoeste 0 -- -- 51
2021-01-11 12:00:00 19.6 9 Sudoeste 23 Sur 0 -- -- 49
2021-01-11 11:00:00 18.5 10 Sudeste 16 Sudeste 0 -- -- 49
2021-01-11 10:00:00 19.5 4 Este 11 Este 0 -- -- 50
2021-01-11 09:00:00 17.1 2 Norte 10 Oeste 0 -- -- 55
2021-01-11 08:00:00 12.4 3 Norte 8 Nordeste 0 -- -- 74
2021-01-11 07:00:00 13.4 2 Noroeste 8 Noroeste 0 -- -- 75
2021-01-11 06:00:00 13.6 6 Nordeste 10 Oeste 0 -- -- 75
2021-01-11 05:00:00 13.8 3 Noroeste 12 Nordeste 0 -- -- 73
2021-01-11 04:00:00 14.4 5 Nordeste 14 Este 0 -- -- 73
2021-01-11 03:00:00 14.5 5 Noroeste 10 Noroeste 0 -- -- 72
2021-01-11 02:00:00 14.6 5 Nordeste 18 Nordeste 0 -- -- 70
2021-01-11 01:00:00 15.7 10 Nordeste 17 Nordeste 0 -- -- 68
2021-01-11 00:00:00 16.6 4 Este 16 Este 0 -- -- 62
2021-01-10 23:00:00 16.5 0 Calma 12 Oeste 0 -- -- 53
2021-01-10 22:00:00 17.4 5 Oeste 21 Noroeste 0 -- -- 50
2021-01-10 21:00:00 17.1 0 Calma 14 Nordeste 0 -- -- 51
2021-01-10 20:00:00 17.6 0 Calma 15 Noroeste 0 -- -- 50
2021-01-10 19:00:00 18.3 5 Noroeste 18 Oeste 0 -- -- 51
2021-01-10 18:00:00 19.5 12 Este 21 Este 0 -- -- 52
2021-01-10 17:00:00 19.6 12 Sudeste 22 Sudeste 0 -- -- 56
2021-01-10 16:00:00 19.4 13 Sudeste 26 Sudeste 0 -- -- 55
2021-01-10 15:00:00 18.9 16 Sudeste 23 Sudeste 0 -- -- 58
2021-01-10 14:00:00 18.6 18 Sudeste 26 Sudeste 0 -- -- 57
2021-01-10 13:00:00 19.3 10 Este 21 Este 0 -- -- 56
2021-01-10 12:00:00 20.6 12 Sudeste 21 Sudeste 0 -- -- 53
2021-01-10 11:00:00 19.7 3 Sur 9 Este 0 -- -- 56
2021-01-10 10:00:00 17.8 4 Este 15 Este 0 -- -- 56
2021-01-10 09:00:00 15.9 7 Este 15 Este 0 -- -- 67
2021-01-10 08:00:00 14 5 Nordeste 12 Norte 0 -- -- 72
2021-01-10 07:00:00 14.1 4 Norte 13 Norte 0 -- -- 72
2021-01-10 06:00:00 14.4 5 Nordeste 11 Nordeste 0 -- -- 67
2021-01-10 05:00:00 14.1 0 Calma 9 Oeste 0 -- -- 63
2021-01-10 04:00:00 14.3 3 Noroeste 8 Noroeste 0 -- -- 61
2021-01-10 03:00:00 14.9 0 Calma 8 Norte 0 -- -- 58
2021-01-10 02:00:00 13.4 2 Nordeste 9 Noroeste 0 -- -- 63
2021-01-10 01:00:00 14.6 2 Noroeste 8 Noroeste 0 -- -- 58
2021-01-10 00:00:00 14 3 Noroeste 7 Noroeste 0 -- -- 58
2021-01-09 23:00:00 15 5 Noroeste 10 Este 0 -- -- 56
2021-01-09 22:00:00 14.8 3 Nordeste 10 Noroeste 0 -- -- 56
2021-01-09 21:00:00 15.5 0 Calma 11 Noroeste 0 -- -- 53
2021-01-09 20:00:00 15.9 3 Nordeste 12 Este 0 -- -- 58
2021-01-09 19:00:00 16.8 4 Nordeste 22 Nordeste 0 -- -- 55
2021-01-09 18:00:00 19.6 3 Noroeste 19 Noroeste 0 -- -- 41
2021-01-09 17:00:00 20.4 13 Nordeste 30 Este 0 -- -- 45
2021-01-09 16:00:00 19.9 8 Sudoeste 23 Sudoeste 0 -- -- 46
2021-01-09 15:00:00 19.3 23 Este 35 Este 0 -- -- 48
2021-01-09 14:00:00 21.6 11 Noroeste 31 Noroeste 0 -- -- 39
2021-01-09 13:00:00 19.3 8 Este 27 Este 0 -- -- 50
2021-01-09 12:00:00 19.8 11 Nordeste 20 Este 0 -- -- 45
2021-01-09 11:00:00 20.6 4 Oeste 35 Oeste 0 -- -- 43
2021-01-09 10:00:00 20.1 2 Nordeste 13 Este 0 -- -- 45
2021-01-09 09:00:00 16.6 4 Nordeste 12 Noroeste 0 -- -- 56
2021-01-09 08:00:00 14.4 3 Noroeste 17 Noroeste 0 -- -- 58
2021-01-09 07:00:00 15.2 3 Noroeste 15 Oeste 0 -- -- 55
2021-01-09 06:00:00 15.3 3 Oeste 14 Noroeste 0 -- -- 59
2021-01-09 05:00:00 15.3 5 Oeste 15 Noroeste 0 -- -- 61
2021-01-09 04:00:00 14.4 3 Noroeste 9 Noroeste 0 -- -- 64
2021-01-09 03:00:00 15.6 4 Noroeste 15 Oeste 0 -- -- 55
2021-01-09 02:00:00 15.8 3 Noroeste 11 Oeste 0 -- -- 59
2021-01-09 01:00:00 16.4 0 Calma 14 Nordeste 0 -- -- 69
2021-01-09 00:00:00 16.9 8 Este 16 Este 0 -- -- 67
2021-01-08 23:00:00 17.9 6 Oeste 17 Sudoeste 0 -- -- 57
2021-01-08 22:00:00 17.7 6 Sur 15 Este 0 -- -- 67
2021-01-08 21:00:00 18.2 3 Oeste 12 Sudoeste 0 -- -- 54
2021-01-08 20:00:00 18.3 2 Noroeste 14 Noroeste 0 -- -- 55
2021-01-08 19:00:00 19.1 6 Sudoeste 12 Sudoeste 0 -- -- 69
2021-01-08 18:00:00 19.2 7 Sur 13 Este 0 -- -- 69
2021-01-08 17:00:00 19.3 6 Este 31 Este 0 -- -- 70
2021-01-08 16:00:00 19.9 19 Este 42 Nordeste 0 -- -- 63
2021-01-08 15:00:00 22.3 15 Sudoeste 24 Sudoeste 0 -- -- 59
2021-01-08 14:00:00 20.9 21 Sudoeste 31 Sudoeste 0 -- -- 59
2021-01-08 13:00:00 21.8 18 Oeste 28 Oeste 0 -- -- 52
2021-01-08 12:00:00 22.2 8 Sudeste 23 Sur 0 -- -- 62
2021-01-08 11:00:00 24.2 0 Calma 17 Noroeste 0 -- -- 49
2021-01-08 10:00:00 22.3 6 Noroeste 30 Sudoeste 0 -- -- 61
2021-01-08 09:00:00 20.2 15 Oeste 30 Oeste 0 -- -- 67
2021-01-08 08:00:00 19 8 Oeste 32 Sudoeste 0 -- -- 72
2021-01-08 07:00:00 19.5 17 Oeste 51 Oeste 0 -- -- 73
2021-01-08 06:00:00 19.6 23 Oeste 55 Oeste 0 -- -- 80
2021-01-08 05:00:00 19.9 24 Oeste 46 Oeste 0 -- -- 78
2021-01-08 04:00:00 19.9 24 Oeste 44 Oeste 0.1 -- -- 79
2021-01-08 03:00:00 19.9 27 Oeste 53 Oeste 1.1 -- -- 85
2021-01-08 02:00:00 20.1 28 Oeste 44 Oeste 0 -- -- 86
2021-01-08 01:00:00 20.4 28 Oeste 53 Sudoeste 0 -- -- 85
2021-01-08 00:00:00 20.6 28 Oeste 49 Sudoeste 0 -- -- 85
2021-01-07 23:00:00 20.4 34 Sudoeste 47 Sudoeste 1.3 -- -- 92
2021-01-07 22:00:00 19.4 31 Sudoeste 55 Sudoeste 4.6 -- -- 97
2021-01-07 21:00:00 20.8 29 Sudoeste 43 Sudoeste 0 -- -- 92
2021-01-07 20:00:00 20.8 22 Oeste 45 Sudoeste 0 -- -- 90
2021-01-07 19:00:00 21 25 Oeste 46 Sudoeste 0 -- -- 91
2021-01-07 18:00:00 21.1 25 Sudoeste 42 Oeste 0 -- -- 89
2021-01-07 17:00:00 21.1 29 Oeste 45 Oeste 0 -- -- 89
2021-01-07 16:00:00 21.3 25 Oeste 42 Sudoeste 0 -- -- 89
2021-01-07 15:00:00 21.3 29 Oeste 45 Oeste 0 -- -- 89
2021-01-07 14:00:00 21.5 22 Oeste 49 Sudoeste 0 -- -- 85
2021-01-07 13:00:00 20.5 40 Sudoeste 63 Sudoeste 0 -- -- 86
2021-01-07 12:00:00 21.2 37 Sudoeste 46 Sudoeste 0 -- -- 90
2021-01-07 11:00:00 20.9 35 Sudoeste 44 Sudoeste 0 -- -- 90
2021-01-07 10:00:00 20.9 30 Sudoeste 40 Sudoeste 0 -- -- 91
2021-01-07 09:00:00 20.7 29 Sudoeste 41 Sudoeste 0 -- -- 93
2021-01-07 08:00:00 20.5 26 Sudoeste 57 Sudoeste 0.2 -- -- 92
2021-01-07 07:00:00 20.4 30 Sudoeste 40 Sudoeste 0 -- -- 93
2021-01-07 06:00:00 20.4 30 Sudoeste 42 Sudoeste 0 -- -- 94
2021-01-07 05:00:00 20.4 34 Sudoeste 43 Sudoeste 0.1 -- -- 95
2021-01-07 04:00:00 20.4 28 Sudoeste 39 Sudoeste 0 -- -- 94
2021-01-07 03:00:00 20.1 23 Sudoeste 42 Sudoeste 0 -- -- 94
2021-01-07 02:00:00 20.3 31 Sudoeste 48 Sudoeste 0 -- -- 94
2021-01-07 01:00:00 20.3 24 Oeste 40 Oeste 0 -- -- 95
2021-01-07 00:00:00 20.4 22 Oeste 35 Sudoeste 0 -- -- 95
2021-01-06 23:00:00 20.5 20 Oeste 30 Sudoeste 0 -- -- 95
2021-01-06 22:00:00 20.5 15 Oeste 32 Sudoeste 0 -- -- 95
2021-01-06 21:00:00 20.4 16 Oeste 35 Oeste 0 -- -- 94
2021-01-06 20:00:00 20.5 15 Oeste 41 Oeste 0 -- -- 93
2021-01-06 19:00:00 20.2 23 Oeste 44 Oeste 0.2 -- -- 94
2021-01-06 18:00:00 20.5 13 Oeste 37 Oeste 0.1 -- -- 92
2021-01-06 17:00:00 20.3 18 Oeste 48 Oeste 0.1 -- -- 94
2021-01-06 16:00:00 21.1 26 Oeste 48 Sudoeste 0 -- -- 92
2021-01-06 15:00:00 20.9 26 Oeste 49 Sudoeste 0 -- -- 92
2021-01-06 14:00:00 21.3 32 Sudoeste 53 Sudoeste 0 -- -- 91
2021-01-06 13:00:00 21.4 28 Sudoeste 47 Sudoeste 0 -- -- 91
2021-01-06 12:00:00 21.5 25 Oeste 51 Sudoeste 0 -- -- 89
2021-01-06 11:00:00 21.5 37 Sudoeste 51 Sudoeste 0 -- -- 90
2021-01-06 10:00:00 20.9 38 Sudoeste 46 Sudoeste 0 -- -- 93
2021-01-06 09:00:00 20.6 33 Sudoeste 49 Sudoeste 0 -- -- 93
2021-01-06 08:00:00 20.4 37 Sudoeste 48 Sudoeste 0 -- -- 95
2021-01-06 07:00:00 20.4 32 Sudoeste 41 Sudoeste 0 -- -- 94
2021-01-06 06:00:00 20.2 31 Sudoeste 41 Sudoeste 0 -- -- 94
2021-01-06 05:00:00 20.1 18 Oeste 35 Sudoeste 0 -- -- 93
2021-01-06 04:00:00 20 20 Sudoeste 35 Sudoeste 0 -- -- 93
2021-01-06 03:00:00 20 23 Sudoeste 33 Sudoeste 0 -- -- 93
2021-01-06 02:00:00 20 22 Sudoeste 33 Sudoeste 0 -- -- 93
2021-01-06 01:00:00 20.1 18 Oeste 28 Sudoeste 0 -- -- 93
2021-01-06 00:00:00 20.1 21 Sudoeste 36 Sudoeste 0.1 -- -- 94
2021-01-05 23:00:00 20.1 18 Sudoeste 27 Sudoeste 0 -- -- 94
2021-01-05 22:00:00 20.2 13 Sudoeste 28 Sudoeste 0 -- -- 93
2021-01-05 21:00:00 20.3 14 Sudoeste 27 Sudoeste 0 -- -- 92
2021-01-05 20:00:00 20.2 18 Sudoeste 24 Sudoeste 0 -- -- 92
2021-01-05 19:00:00 20.2 10 Oeste 24 Oeste 0.5 -- -- 91
2021-01-05 18:00:00 20.8 14 Oeste 27 Oeste 0 -- -- 86
2021-01-05 17:00:00 21.4 13 Oeste 28 Oeste 0 -- -- 85
2021-01-05 16:00:00 21.8 14 Oeste 28 Oeste 0 -- -- 82
2021-01-05 15:00:00 21.8 16 Oeste 29 Sudoeste 0 -- -- 83
2021-01-05 14:00:00 21.5 13 Oeste 27 Oeste 0 -- -- 85
2021-01-05 13:00:00 22.1 14 Oeste 28 Oeste 0 -- -- 79
2021-01-05 12:00:00 22.3 13 Oeste 25 Oeste 0.1 -- -- 82
2021-01-05 11:00:00 21.4 10 Oeste 27 Oeste 0 -- -- 86
2021-01-05 10:00:00 21.4 12 Oeste 22 Oeste 0 -- -- 79
2021-01-05 09:00:00 20.7 9 Oeste 28 Oeste 0 -- -- 86
2021-01-05 08:00:00 19.7 10 Oeste 22 Oeste 0 -- -- 93
2021-01-05 07:00:00 19.8 12 Oeste 19 Oeste 0 -- -- 95
2021-01-05 06:00:00 19.9 9 Oeste 19 Oeste 0.1 -- -- 95
2021-01-05 05:00:00 19.9 13 Oeste 22 Sudoeste 0 -- -- 95
2021-01-05 04:00:00 20 15 Oeste 29 Sudoeste 0 -- -- 95
2021-01-05 03:00:00 19.9 17 Sudoeste 24 Sudoeste 0 -- -- 96
2021-01-05 02:00:00 18.9 7 Noroeste 15 Noroeste 0.1 -- -- 95
2021-01-05 01:00:00 18.8 7 Oeste 17 Oeste 0 -- -- 96
2021-01-05 00:00:00 18.7 10 Oeste 30 Sudoeste 0.1 -- -- 95
2021-01-04 23:00:00 19.1 23 Sudoeste 32 Sudoeste 0 -- -- 90
2021-01-04 22:00:00 19.3 12 Oeste 23 Sudoeste 0 -- -- 88
2021-01-04 21:00:00 19 9 Oeste 21 Sudoeste 0 -- -- 85
2021-01-04 20:00:00 18.7 6 Oeste 16 Sudoeste 0 -- -- 83
2021-01-04 19:00:00 19 11 Oeste 28 Oeste 0 -- -- 82
2021-01-04 18:00:00 18.9 14 Oeste 27 Sudoeste 0 -- -- 81
2021-01-04 17:00:00 19 16 Sudoeste 24 Sudoeste 0 -- -- 81
2021-01-04 16:00:00 18.7 19 Sudoeste 24 Sudoeste 0 -- -- 82
2021-01-04 15:00:00 18.8 19 Sudoeste 24 Sudoeste 0 -- -- 78
2021-01-04 14:00:00 19.2 16 Sur 23 Sur 0 -- -- 77
2021-01-04 13:00:00 19.4 17 Sur 23 Sur 0 -- -- 76
2021-01-04 12:00:00 19.1 19 Sur 28 Sur 0 -- -- 77
2021-01-04 11:00:00 18.7 18 Sur 22 Sur 0 -- -- 78
2021-01-04 10:00:00 18.8 17 Sur 20 Sur 0 -- -- 78
2021-01-04 09:00:00 18.4 15 Sudeste 21 Sur 0 -- -- 78
2021-01-04 08:00:00 18.3 13 Sur 18 Sudeste 0 -- -- 77
2021-01-04 07:00:00 18.2 9 Sudeste 12 Sudeste 0 -- -- 75
2021-01-04 06:00:00 18.2 4 Sur 10 Sur 0 -- -- 74
2021-01-04 05:00:00 17.1 2 Norte 8 Nordeste 0 -- -- 72
2021-01-04 04:00:00 17.4 3 Noroeste 11 Nordeste 0 -- -- 73
2021-01-04 03:00:00 17.1 0 Calma 10 Nordeste 0 -- -- 74
2021-01-04 02:00:00 16.7 7 Nordeste 12 Norte 0 -- -- 71
2021-01-04 01:00:00 16.8 3 Norte 9 Norte 0 -- -- 70
2021-01-04 00:00:00 16.9 2 Norte 11 Norte 0 -- -- 70
2021-01-03 23:00:00 17 6 Nordeste 14 Nordeste 0 -- -- 69
2021-01-03 22:00:00 17.4 11 Nordeste 14 Nordeste 0 -- -- 68
2021-01-03 21:00:00 18.1 5 Nordeste 15 Este 0 -- -- 68
2021-01-03 20:00:00 18.3 13 Este 19 Este 0 -- -- 68
2021-01-03 19:00:00 18.4 15 Este 21 Este 0 -- -- 65
2021-01-03 18:00:00 18.7 16 Este 23 Este 0 -- -- 66
2021-01-03 17:00:00 19 17 Este 25 Este 0 -- -- 64
2021-01-03 16:00:00 19.1 19 Este 27 Este 0 -- -- 64
2021-01-03 15:00:00 19.3 19 Este 27 Este 0 -- -- 65
2021-01-03 14:00:00 18.9 16 Este 22 Este 0 -- -- 64
2021-01-03 13:00:00 19.3 16 Este 21 Este 0 -- -- 63
2021-01-03 12:00:00 19.2 15 Nordeste 21 Este 0 -- -- 65
2021-01-03 11:00:00 18.7 12 Nordeste 19 Este 0 -- -- 65
2021-01-03 10:00:00 18.5 5 Nordeste 9 Nordeste 0 -- -- 65
2021-01-03 09:00:00 16.8 4 Norte 9 Norte 0 -- -- 67
2021-01-03 08:00:00 15.9 3 Norte 13 Norte 0 -- -- 69
2021-01-03 07:00:00 15.9 5 Norte 11 Nordeste 0 -- -- 72
2021-01-03 06:00:00 16.2 4 Norte 18 Nordeste 0 -- -- 71
2021-01-03 05:00:00 17.2 13 Nordeste 26 Nordeste 0 -- -- 69
2021-01-03 04:00:00 17.2 6 Nordeste 17 Nordeste 0 -- -- 68
2021-01-03 03:00:00 17.4 11 Nordeste 18 Nordeste 0 -- -- 68
2021-01-03 02:00:00 17.4 12 Nordeste 23 Nordeste 0 -- -- 68
2021-01-03 01:00:00 17.8 11 Nordeste 23 Nordeste 0 -- -- 68
2021-01-03 00:00:00 17.7 14 Nordeste 27 Nordeste 0 -- -- 69
2021-01-02 23:00:00 17.8 13 Nordeste 23 Nordeste 0 -- -- 63
2021-01-02 22:00:00 17.9 10 Nordeste 27 Nordeste 0 -- -- 65
2021-01-02 21:00:00 18.1 12 Nordeste 25 Nordeste 0 -- -- 66
2021-01-02 20:00:00 18.2 14 Nordeste 27 Nordeste 0 -- -- 68
2021-01-02 19:00:00 17.9 12 Nordeste 29 Nordeste 0 -- -- 70
2021-01-02 18:00:00 18.6 18 Nordeste 32 Nordeste 0 -- -- 67
2021-01-02 17:00:00 19.9 7 Oeste 36 Nordeste 0 -- -- 59
2021-01-02 16:00:00 19.9 24 Nordeste 39 Nordeste 0 -- -- 56
2021-01-02 15:00:00 20 28 Nordeste 39 Este 0 -- -- 56
2021-01-02 14:00:00 19.7 29 Este 36 Este 0 -- -- 59
2021-01-02 13:00:00 20.4 27 Este 38 Este 0 -- -- 55